Time;durP1;ratioP1;P1;durP2;ratioP2;P2;SDS_P1;SDS_P2;PMS_P1;PMS_P2;Temp;Humidity;BMP_temperature;BMP_pressure;BME280_temperature;BME280_humidity;BME280_pressure;Samples;Min_cycle;Max_cycle;Signal;HPM_P1;HPM_P2
2021/11/14 00:00:00;;;;;;;3.13;2.83;;;11.80;99.90;;;;;;5016467;28;20185;-76
2021/11/14 00:02:26;;;;;;;4.05;3.63;;;11.90;99.90;;;;;;5034651;28;20174;-76
2021/11/14 00:04:52;;;;;;;5.00;3.70;;;11.80;99.90;;;;;;5037195;28;20219;-76
2021/11/14 00:07:21;;;;;;;3.63;3.13;;;11.80;99.90;;;;;;5033681;28;20208;-76
2021/11/14 00:09:47;;;;;;;4.83;3.90;;;11.80;99.90;;;;;;5016187;28;20556;-76
2021/11/14 00:12:13;;;;;;;4.72;2.70;;;11.80;99.90;;;;;;5016407;28;20615;-75
2021/11/14 00:14:39;;;;;;;3.30;2.90;;;11.80;99.90;;;;;;5016418;28;20300;-76
2021/11/14 00:17:05;;;;;;;4.43;3.40;;;11.80;99.90;;;;;;5033193;28;20699;-76
2021/11/14 00:19:31;;;;;;;4.20;3.80;;;11.80;99.90;;;;;;5033667;28;20166;-76
2021/11/14 00:21:57;;;;;;;3.43;3.13;;;11.80;99.90;;;;;;5033673;28;20180;-76
2021/11/14 00:24:23;;;;;;;4.30;3.90;;;11.70;99.90;;;;;;5033838;28;20178;-76
2021/11/14 00:26:49;;;;;;;3.75;3.35;;;11.70;99.90;;;;;;5033168;28;20596;-76
2021/11/14 00:29:15;;;;;;;6.53;4.37;;;11.70;99.90;;;;;;5033254;28;20197;-76
2021/11/14 00:31:41;;;;;;;3.97;3.50;;;11.70;99.90;;;;;;4998528;28;20659;-76
2021/11/14 00:34:07;;;;;;;5.13;3.43;;;11.70;99.90;;;;;;5033594;28;20572;-76
2021/11/14 00:36:39;;;;;;;5.10;3.50;;;11.70;99.90;;;;;;5032752;28;20588;-76
2021/11/14 00:39:08;;;;;;;4.20;3.80;;;11.70;99.90;;;;;;5033751;28;20193;-75
2021/11/14 00:41:34;;;;;;;4.35;2.97;;;11.80;99.90;;;;;;5015702;28;20173;-75
2021/11/14 00:44:04;;;;;;;4.13;3.65;;;11.70;99.90;;;;;;5015962;28;20170;-75
2021/11/14 00:46:30;;;;;;;4.32;3.88;;;11.80;99.90;;;;;;5032858;28;20688;-76
2021/11/14 00:48:56;;;;;;;4.10;3.77;;;11.80;99.90;;;;;;5015328;28;20190;-76
2021/11/14 00:51:29;;;;;;;4.70;4.05;;;11.80;99.90;;;;;;5016118;28;20580;-76
2021/11/14 00:53:59;;;;;;;3.53;3.22;;;11.80;99.90;;;;;;5032906;28;20161;-76
2021/11/14 00:56:26;;;;;;;3.95;3.35;;;11.80;99.90;;;;;;5032843;28;20186;-76
2021/11/14 00:58:52;;;;;;;4.00;3.65;;;11.80;99.90;;;;;;5015313;28;20224;-77
2021/11/14 01:01:19;;;;;;;3.97;3.60;;;11.80;99.90;;;;;;5033291;28;20663;-76
2021/11/14 01:03:48;;;;;;;5.60;4.25;;;11.80;99.90;;;;;;5032298;28;20182;-76
2021/11/14 01:06:14;;;;;;;3.83;3.53;;;11.80;99.90;;;;;;5032572;28;20204;-76
2021/11/14 01:08:40;;;;;;;3.97;3.67;;;11.80;99.90;;;;;;5032527;28;20573;-76
2021/11/14 01:11:07;;;;;;;5.15;3.80;;;11.80;99.90;;;;;;5015174;28;20658;-76
2021/11/14 01:13:34;;;;;;;4.43;3.85;;;11.80;99.90;;;;;;5032543;28;20311;-76
2021/11/14 01:16:00;;;;;;;4.55;3.63;;;11.90;99.90;;;;;;5032106;28;20263;-76
2021/11/14 01:18:26;;;;;;;4.00;3.65;;;11.90;99.90;;;;;;5014895;28;20200;-76
2021/11/14 01:20:56;;;;;;;3.80;3.50;;;11.80;99.90;;;;;;5014659;28;20343;-77
2021/11/14 01:23:24;;;;;;;3.53;3.22;;;11.90;99.90;;;;;;5015097;28;20575;-76
2021/11/14 01:25:50;;;;;;;4.13;3.72;;;11.90;99.90;;;;;;5014278;28;20194;-76
2021/11/14 01:28:17;;;;;;;3.80;3.50;;;11.90;99.90;;;;;;5032506;28;20231;-76
2021/11/14 01:30:45;;;;;;;4.00;3.38;;;11.90;99.90;;;;;;5014370;28;20173;-76
2021/11/14 01:33:15;;;;;;;3.75;3.10;;;11.90;99.90;;;;;;5014483;28;20537;-76
2021/11/14 01:35:42;;;;;;;3.65;3.15;;;11.90;99.90;;;;;;5032312;28;20256;-76
2021/11/14 01:38:08;;;;;;;3.70;3.33;;;11.90;99.90;;;;;;5032008;28;20170;-76
2021/11/14 01:40:48;;;;;;;4.97;3.80;;;11.90;99.90;;;;;;5014512;28;20169;-76
2021/11/14 01:43:18;;;;;;;3.05;2.85;;;11.90;99.90;;;;;;5014381;28;20544;-76
2021/11/14 01:45:44;;;;;;;4.25;3.83;;;11.90;99.90;;;;;;5014445;28;20240;-76
2021/11/14 01:48:10;;;;;;;5.00;3.77;;;12.00;99.90;;;;;;5014578;28;20166;-76
2021/11/14 01:50:37;;;;;;;3.72;3.10;;;12.00;99.90;;;;;;5014602;28;20177;-76
2021/11/14 01:53:04;;;;;;;3.80;3.35;;;11.90;99.90;;;;;;5031858;28;20165;-76
2021/11/14 01:55:31;;;;;;;4.88;4.38;;;11.90;99.90;;;;;;5032245;28;20229;-76
2021/11/14 01:57:58;;;;;;;2.60;2.40;;;12.00;99.90;;;;;;5031359;28;20180;-76
2021/11/14 02:00:29;;;;;;;3.50;2.65;;;12.00;99.90;;;;;;5032037;28;20173;-76
2021/11/14 02:02:59;;;;;;;2.47;2.28;;;11.90;99.90;;;;;;5031691;28;20253;-76
2021/11/14 02:05:32;;;;;;;3.40;2.88;;;12.00;99.90;;;;;;5014211;28;20180;-76
2021/11/14 02:08:00;;;;;;;3.58;2.90;;;12.00;99.90;;;;;;5031247;28;20223;-76
2021/11/14 02:10:29;;;;;;;3.13;2.65;;;12.00;99.90;;;;;;5032015;28;20169;-76
2021/11/14 02:12:59;;;;;;;3.42;2.55;;;12.00;99.90;;;;;;5031459;28;20170;-76
2021/11/14 02:15:25;;;;;;;2.88;2.60;;;11.90;99.90;;;;;;5031586;28;20177;-76
2021/11/14 02:17:51;;;;;;;4.13;3.72;;;11.90;99.90;;;;;;5013411;28;20215;-76
2021/11/14 02:20:18;;;;;;;4.47;3.40;;;11.90;99.90;;;;;;5032113;28;20174;-77
2021/11/14 02:22:44;;;;;;;4.60;3.20;;;11.90;99.90;;;;;;5014148;28;20261;-77
2021/11/14 02:25:12;;;;;;;3.63;3.30;;;11.90;99.90;;;;;;5032304;28;20180;-76
2021/11/14 02:27:39;;;;;;;3.80;3.50;;;11.90;99.90;;;;;;5032195;28;20197;-77
2021/11/14 02:30:08;;;;;;;4.68;3.80;;;11.90;99.90;;;;;;5014212;28;20677;-76
2021/11/14 02:32:34;;;;;;;4.18;3.78;;;11.90;99.90;;;;;;5034697;28;20161;-77
2021/11/14 02:35:03;;;;;;;4.70;4.10;;;11.80;99.90;;;;;;5039294;28;20182;-77
2021/11/14 02:37:29;;;;;;;4.07;3.67;;;11.90;99.90;;;;;;5031429;28;20193;-77
2021/11/14 02:39:57;;;;;;;4.30;3.90;;;11.80;99.90;;;;;;5014308;28;20529;-77
2021/11/14 02:42:23;;;;;;;4.80;3.60;;;11.80;99.90;;;;;;5014267;28;20264;-76
2021/11/14 02:44:51;;;;;;;3.60;3.30;;;11.80;99.90;;;;;;5013502;28;20174;-76
2021/11/14 02:47:20;;;;;;;6.95;3.95;;;11.80;99.90;;;;;;5031202;28;21025;-76
2021/11/14 02:49:45;;;;;;;3.37;3.07;;;11.80;99.90;;;;;;5031583;28;20276;-76
2021/11/14 02:52:14;;;;;;;4.32;3.92;;;11.80;99.90;;;;;;5014274;28;20253;-76
2021/11/14 02:54:48;;;;;;;4.32;3.90;;;11.80;99.90;;;;;;5034476;28;20177;-75
2021/11/14 02:57:14;;;;;;;4.03;3.63;;;11.80;99.90;;;;;;5000091;28;20204;-75
2021/11/14 02:59:39;;;;;;;3.70;3.37;;;11.80;99.90;;;;;;5001571;28;20970;-75
2021/11/14 03:02:05;;;;;;;5.47;4.30;;;11.80;99.90;;;;;;5035490;28;20599;-75
2021/11/14 03:04:39;;;;;;;6.38;4.43;;;11.70;99.90;;;;;;5034491;28;20232;-77
2021/11/14 03:07:05;;;;;;;4.20;3.80;;;11.70;99.90;;;;;;5016352;28;20209;-75
2021/11/14 03:09:33;;;;;;;5.80;3.50;;;11.70;99.90;;;;;;5033294;28;20197;-75
2021/11/14 03:12:05;;;;;;;3.40;3.10;;;11.60;99.90;;;;;;5015633;28;20170;-75
2021/11/14 03:14:45;;;;;;;3.88;3.47;;;11.60;99.90;;;;;;5036842;28;20198;-76
2021/11/14 03:17:13;;;;;;;4.00;3.70;;;11.60;99.90;;;;;;5035152;28;20831;-77
2021/11/14 03:19:39;;;;;;;4.05;3.75;;;11.60;99.90;;;;;;5019473;28;20196;-76
2021/11/14 03:22:05;;;;;;;3.83;3.43;;;11.60;99.90;;;;;;5035021;28;20544;-76
2021/11/14 03:24:31;;;;;;;3.83;3.43;;;11.50;99.90;;;;;;5015294;28;20174;-76
2021/11/14 03:26:56;;;;;;;3.50;3.20;;;11.50;99.90;;;;;;5015667;28;20686;-77
2021/11/14 03:29:22;;;;;;;4.20;3.30;;;11.50;99.90;;;;;;5015767;28;20280;-77
2021/11/14 03:31:48;;;;;;;3.90;3.50;;;11.50;99.90;;;;;;5016561;28;20170;-76
2021/11/14 03:34:14;;;;;;;3.40;3.10;;;11.50;99.90;;;;;;5033588;28;20185;-77
2021/11/14 03:36:53;;;;;;;3.65;2.72;;;11.40;99.90;;;;;;5034466;28;20555;-77
2021/11/14 03:39:19;;;;;;;2.53;2.33;;;11.40;99.90;;;;;;5013823;28;20200;-77
2021/11/14 03:41:45;;;;;;;3.40;2.97;;;11.50;99.90;;;;;;5030838;28;20783;-77
2021/11/14 03:44:14;;;;;;;2.80;2.60;;;11.50;99.90;;;;;;5016522;28;20165;-77
2021/11/14 03:46:40;;;;;;;3.25;2.95;;;11.40;99.90;;;;;;5034317;28;20280;-76
2021/11/14 03:49:08;;;;;;;2.55;2.35;;;11.40;99.90;;;;;;5034461;28;20425;-76
2021/11/14 03:51:34;;;;;;;1.63;1.50;;;11.50;99.90;;;;;;5034508;28;20166;-76
2021/11/14 03:54:01;;;;;;;3.53;2.40;;;11.50;99.90;;;;;;5000388;28;20173;-77
2021/11/14 03:56:29;;;;;;;4.40;2.70;;;11.50;99.90;;;;;;5015585;28;20186;-77
2021/11/14 03:58:55;;;;;;;3.40;3.20;;;11.50;99.90;;;;;;5034415;28;20261;-77
2021/11/14 04:01:22;;;;;;;2.43;2.23;;;11.50;99.90;;;;;;5034234;28;20290;-77
2021/11/14 04:03:51;;;;;;;3.20;2.90;;;11.50;99.90;;;;;;5033877;28;20592;-77
2021/11/14 04:06:20;;;;;;;2.95;2.75;;;11.50;99.90;;;;;;5033827;28;20572;-77
2021/11/14 04:08:45;;;;;;;4.78;4.38;;;11.60;99.90;;;;;;5033996;28;20201;-78
2021/11/14 04:11:14;;;;;;;3.10;2.80;;;11.50;99.90;;;;;;5016280;28;20169;-78
2021/11/14 04:13:40;;;;;;;2.85;2.65;;;11.50;99.90;;;;;;5016315;28;20241;-78
2021/11/14 04:16:08;;;;;;;3.07;2.67;;;11.50;99.90;;;;;;5033272;28;20397;-78
2021/11/14 04:18:38;;;;;;;3.65;3.10;;;11.50;99.90;;;;;;5034073;28;20178;-78
2021/11/14 04:21:06;;;;;;;3.05;2.75;;;11.50;99.90;;;;;;5035495;28;20535;-78
2021/11/14 04:23:33;;;;;;;2.58;2.38;;;11.60;99.90;;;;;;5034153;28;20308;-79
2021/11/14 04:26:01;;;;;;;2.58;2.38;;;11.60;99.90;;;;;;5015459;28;20198;-78
2021/11/14 04:28:27;;;;;;;2.55;2.35;;;11.60;99.90;;;;;;5015877;28;20233;-78
2021/11/14 04:30:56;;;;;;;3.00;2.80;;;11.60;99.90;;;;;;5016357;28;20625;-78
2021/11/14 04:33:24;;;;;;;2.65;2.38;;;11.60;99.90;;;;;;5015592;28;20552;-78
2021/11/14 04:35:53;;;;;;;3.97;2.85;;;11.60;99.90;;;;;;5015820;28;20201;-78
2021/11/14 04:38:20;;;;;;;3.80;2.67;;;11.60;99.90;;;;;;5015847;28;20181;-78
2021/11/14 04:40:47;;;;;;;3.20;2.90;;;11.60;99.90;;;;;;5033866;28;20626;-78
2021/11/14 04:43:17;;;;;;;2.50;2.22;;;11.70;99.90;;;;;;5015394;28;20173;-78
2021/11/14 04:45:44;;;;;;;3.05;2.80;;;11.70;99.90;;;;;;5016180;28;20220;-78
2021/11/14 04:48:11;;;;;;;2.80;2.42;;;11.70;99.90;;;;;;5033407;28;20585;-78
2021/11/14 04:50:39;;;;;;;3.05;2.80;;;11.70;99.90;;;;;;5033539;28;20594;-78
2021/11/14 04:53:06;;;;;;;2.67;2.47;;;11.70;99.90;;;;;;5033055;28;20165;-78
2021/11/14 04:55:34;;;;;;;6.32;3.25;;;11.70;99.90;;;;;;5032789;28;20650;-78
2021/11/14 04:58:08;;;;;;;3.13;2.83;;;11.70;99.90;;;;;;5032506;28;20205;-78
2021/11/14 05:00:57;;;;;;;3.08;2.80;;;11.70;99.90;;;;;;5033033;28;20204;-78
2021/11/14 05:03:23;;;;;;;3.17;2.40;;;11.70;99.90;;;;;;5032705;28;20196;-78
2021/11/14 05:05:49;;;;;;;2.00;1.80;;;11.60;99.90;;;;;;5034266;28;20296;-77
2021/11/14 05:08:15;;;;;;;2.85;2.65;;;11.60;99.90;;;;;;5021801;28;20576;-77
2021/11/14 05:10:43;;;;;;;2.40;2.20;;;11.60;99.90;;;;;;5033042;28;20162;-77
2021/11/14 05:13:09;;;;;;;2.22;2.00;;;11.60;99.90;;;;;;5015255;28;20630;-78
2021/11/14 05:15:35;;;;;;;2.80;2.07;;;11.60;99.90;;;;;;5032581;28;20633;-77
2021/11/14 05:18:01;;;;;;;2.85;2.65;;;11.60;99.90;;;;;;4998093;28;20675;-78
2021/11/14 05:20:30;;;;;;;3.30;3.00;;;11.70;99.90;;;;;;5032795;28;20169;-77
2021/11/14 05:22:55;;;;;;;2.75;2.55;;;11.70;99.90;;;;;;5014653;28;20267;-78
2021/11/14 05:25:26;;;;;;;3.30;2.40;;;11.70;99.90;;;;;;5032827;28;20626;-79
2021/11/14 05:27:52;;;;;;;2.30;2.10;;;11.70;99.90;;;;;;5014232;28;20181;-78
2021/11/14 05:30:28;;;;;;;2.67;2.47;;;11.70;99.90;;;;;;5016203;28;20601;-79
2021/11/14 05:32:55;;;;;;;3.10;2.35;;;11.70;99.90;;;;;;5032124;28;20203;-79
2021/11/14 05:35:20;;;;;;;2.70;2.50;;;11.70;99.90;;;;;;5015130;28;20173;-79
2021/11/14 05:37:46;;;;;;;3.73;3.10;;;11.60;99.90;;;;;;5018363;28;20173;-79
2021/11/14 05:40:14;;;;;;;2.92;2.72;;;11.60;99.90;;;;;;5014881;28;20232;-79
2021/11/14 05:43:06;;;;;;;3.53;3.33;;;11.50;99.90;;;;;;5020565;28;20201;-78
2021/11/14 05:46:42;;;;;;;4.20;3.13;;;11.40;99.90;;;;;;5013246;28;20247;-78
2021/11/14 05:53:55;;;;;;;2.65;2.45;;;11.20;99.90;;;;;;5040007;28;20173;-79
2021/11/14 06:10:27;;;;;;;3.20;2.90;;;10.70;99.90;;;;;;4795075;29;20227;-79
2021/11/14 06:17:08;;;;;;;2.65;2.45;;;10.60;99.90;;;;;;4879581;29;20194;-79
2021/11/14 06:20:28;;;;;;;3.07;2.87;;;10.70;99.90;;;;;;4901699;29;20535;-78
2021/11/14 06:30:53;;;;;;;3.15;2.90;;;10.70;99.90;;;;;;4846622;29;20679;-77
2021/11/14 06:37:44;;;;;;;3.67;3.38;;;10.80;99.90;;;;;;4859337;29;20210;-78
2021/11/14 06:49:06;;;;;;;3.30;3.10;;;10.80;99.90;;;;;;4770508;30;20218;-79
2021/11/14 06:52:43;;;;;;;3.58;3.38;;;10.80;99.90;;;;;;4771516;30;20712;-79
2021/11/14 06:55:27;;;;;;;3.63;3.33;;;10.80;99.90;;;;;;4755194;30;20219;-79
2021/11/14 06:57:53;;;;;;;3.00;2.80;;;10.80;99.90;;;;;;4761080;30;20191;-79
2021/11/14 07:00:23;;;;;;;3.07;2.87;;;10.80;99.90;;;;;;4820253;29;20265;-77
2021/11/14 07:03:28;;;;;;;2.55;2.35;;;10.80;99.90;;;;;;4885556;29;20221;-78
2021/11/14 07:06:19;;;;;;;2.80;2.60;;;10.80;99.90;;;;;;4896534;29;20205;-75
2021/11/14 07:08:51;;;;;;;2.72;2.53;;;10.80;99.90;;;;;;4897740;29;20236;-75
2021/11/14 07:20:17;;;;;;;1.83;1.60;;;10.90;99.90;;;;;;4888251;28;20213;-75
2021/11/14 07:22:45;;;;;;;3.50;3.20;;;11.10;99.90;;;;;;5012846;28;20579;-75
2021/11/14 07:25:15;;;;;;;2.65;2.45;;;11.10;99.90;;;;;;5013441;28;20173;-77
2021/11/14 07:27:50;;;;;;;3.10;2.90;;;11.10;99.90;;;;;;5030392;28;20162;-76
2021/11/14 07:30:19;;;;;;;3.42;3.13;;;11.10;99.90;;;;;;5013276;28;20277;-75
2021/11/14 07:32:48;;;;;;;2.60;2.40;;;11.20;99.90;;;;;;5030168;28;20228;-76
2021/11/14 07:35:16;;;;;;;3.08;2.88;;;11.20;99.90;;;;;;4996748;28;20648;-75
2021/11/14 07:37:42;;;;;;;3.13;2.92;;;11.30;99.90;;;;;;5012664;28;20157;-75
2021/11/14 07:40:10;;;;;;;3.20;3.00;;;11.30;99.90;;;;;;5033158;28;20244;-75
2021/11/14 07:42:40;;;;;;;3.13;2.92;;;11.40;99.90;;;;;;5016954;28;20169;-76
2021/11/14 07:50:31;;;;;;;3.13;2.92;;;11.50;99.90;;;;;;5032501;28;20236;-76
2021/11/14 07:53:00;;;;;;;3.20;3.00;;;11.60;99.90;;;;;;5034415;28;20166;-76
2021/11/14 07:55:32;;;;;;;3.95;2.55;;;11.60;99.90;;;;;;5034379;28;20177;-76
2021/11/14 07:57:59;;;;;;;3.00;2.80;;;11.60;99.90;;;;;;5033893;28;20166;-76
2021/11/14 08:00:25;;;;;;;2.53;2.33;;;11.60;99.90;;;;;;5034254;28;20170;-76
2021/11/14 08:02:52;;;;;;;3.78;2.47;;;11.70;99.90;;;;;;5032669;28;20174;-76
2021/11/14 08:05:19;;;;;;;2.10;1.85;;;11.80;99.90;;;;;;5032497;28;20926;-75
2021/11/14 08:07:48;;;;;;;2.83;2.55;;;11.80;99.90;;;;;;5032600;28;20172;-76
2021/11/14 08:10:17;;;;;;;2.13;1.92;;;11.90;99.90;;;;;;5032737;28;20359;-76
2021/11/14 08:12:45;;;;;;;2.17;1.98;;;11.90;99.90;;;;;;5033760;28;20166;-76
2021/11/14 08:15:14;;;;;;;2.20;2.00;;;12.00;99.90;;;;;;5033602;28;20165;-77
2021/11/14 08:17:40;;;;;;;2.50;2.30;;;12.10;99.90;;;;;;5032104;28;20185;-77
2021/11/14 08:20:07;;;;;;;2.15;1.80;;;12.10;99.90;;;;;;5033820;28;20300;-76
2021/11/14 08:22:33;;;;;;;2.83;2.63;;;12.10;99.90;;;;;;5032506;28;20661;-76
2021/11/14 08:25:01;;;;;;;2.10;1.90;;;12.10;99.90;;;;;;5032830;28;20169;-77
2021/11/14 08:27:30;;;;;;;2.05;1.90;;;12.20;99.90;;;;;;5033240;28;20708;-76
2021/11/14 08:29:57;;;;;;;2.53;1.75;;;12.20;99.90;;;;;;5015328;28;20271;-76
2021/11/14 08:32:26;;;;;;;2.70;2.50;;;12.20;99.90;;;;;;5032996;28;20193;-76
2021/11/14 08:34:52;;;;;;;2.28;2.08;;;12.20;99.90;;;;;;5033232;28;20568;-76
2021/11/14 08:37:18;;;;;;;1.87;1.67;;;12.30;99.90;;;;;;5032074;28;20669;-76
2021/11/14 08:39:45;;;;;;;2.00;1.77;;;12.40;99.90;;;;;;5033440;28;21175;-76
2021/11/14 08:42:12;;;;;;;1.60;1.30;;;12.40;99.90;;;;;;5031658;28;20952;-76
2021/11/14 08:45:11;;;;;;;;;;;;;;;;;;;;;
2021/11/14 08:47:49;;;;;;;1.45;1.10;;;12.60;99.90;;;;;;5011041;28;20202;-76
2021/11/14 08:50:26;;;;;;;1.50;1.10;;;12.80;99.90;;;;;;5013501;28;20202;-77
2021/11/14 08:52:52;;;;;;;1.37;1.00;;;13.00;99.90;;;;;;5012904;28;20573;-77
2021/11/14 08:55:21;;;;;;;1.60;1.27;;;13.10;99.90;;;;;;5013186;28;20588;-76
2021/11/14 08:57:52;;;;;;;1.60;1.50;;;13.20;99.90;;;;;;5010706;28;20577;-76
2021/11/14 09:00:29;;;;;;;1.47;1.30;;;13.40;99.90;;;;;;5013573;28;20612;-76
2021/11/14 09:06:48;;;;;;;5.77;1.73;;;13.60;99.90;;;;;;5009027;28;20972;-76
2021/11/14 09:09:14;;;;;;;1.80;1.30;;;13.70;99.90;;;;;;5011733;28;20636;-75
2021/11/14 09:11:44;;;;;;;1.50;1.20;;;13.80;99.90;;;;;;5013046;28;20569;-75
2021/11/14 09:14:21;;;;;;;;;;;;;;;;;;;;;
2021/11/14 09:16:50;;;;;;;2.00;0.90;;;13.90;99.90;;;;;;5012569;28;20610;-75
2021/11/14 09:19:16;;;;;;;1.40;1.03;;;13.90;99.90;;;;;;5012651;28;20604;-76
2021/11/14 09:21:42;;;;;;;1.40;0.90;;;13.90;99.90;;;;;;5011546;28;20597;-77
2021/11/14 09:24:09;;;;;;;2.13;0.90;;;13.90;99.90;;;;;;5012412;28;20986;-75
2021/11/14 09:26:37;;;;;;;1.50;1.00;;;13.90;99.90;;;;;;5012073;28;20597;-76
2021/11/14 09:29:05;;;;;;;1.30;0.90;;;13.90;99.90;;;;;;5012524;28;20659;-75
2021/11/14 09:31:34;;;;;;;1.40;0.90;;;13.90;99.90;;;;;;5012815;28;20935;-75
2021/11/14 09:34:01;;;;;;;1.40;0.83;;;13.90;99.90;;;;;;5011192;28;21148;-75
2021/11/14 09:36:30;;;;;;;1.30;1.00;;;14.00;99.90;;;;;;5010195;28;20601;-76
2021/11/14 09:39:06;;;;;;;2.50;1.00;;;14.00;99.90;;;;;;5012607;28;20577;-76
2021/11/14 09:41:32;;;;;;;1.33;0.90;;;14.00;99.90;;;;;;5011014;28;20612;-76
2021/11/14 09:43:58;;;;;;;1.40;0.70;;;13.90;99.90;;;;;;4994579;28;20604;-74
2021/11/14 09:46:25;;;;;;;1.20;0.60;;;13.80;99.90;;;;;;5009997;28;21234;-75
2021/11/14 09:48:53;;;;;;;1.00;0.70;;;13.80;99.90;;;;;;5009608;28;20226;-77
2021/11/14 09:51:19;;;;;;;1.10;0.60;;;13.80;99.90;;;;;;4994774;28;20624;-75
2021/11/14 09:53:45;;;;;;;1.10;0.60;;;13.70;99.90;;;;;;5012209;28;20597;-75
2021/11/14 09:56:11;;;;;;;1.10;0.60;;;13.70;99.90;;;;;;5011213;28;20190;-76
2021/11/14 09:58:37;;;;;;;1.10;0.60;;;13.70;99.90;;;;;;5011010;28;20166;-76
2021/11/14 10:01:05;;;;;;;1.10;0.60;;;13.70;99.90;;;;;;5010665;28;20209;-75
2021/11/14 10:03:31;;;;;;;1.17;0.50;;;13.70;99.90;;;;;;5010454;28;20613;-75
2021/11/14 10:05:57;;;;;;;1.13;0.60;;;13.70;99.90;;;;;;5009697;28;20617;-75
2021/11/14 10:08:24;;;;;;;1.00;0.50;;;13.80;99.90;;;;;;5011941;28;20592;-75
2021/11/14 10:10:55;;;;;;;2.10;0.60;;;13.90;99.90;;;;;;5011947;28;20197;-76
2021/11/14 10:13:22;;;;;;;1.00;0.50;;;14.00;99.90;;;;;;5011356;28;20593;-76
2021/11/14 10:15:59;;;;;;;1.10;0.57;;;14.10;99.90;;;;;;5012088;28;20614;-77
2021/11/14 10:18:24;;;;;;;1.20;0.60;;;14.10;99.90;;;;;;5010607;28;20584;-77
2021/11/14 10:20:54;;;;;;;1.03;0.60;;;14.10;99.90;;;;;;5012232;28;20577;-77
2021/11/14 10:23:20;;;;;;;1.03;0.60;;;14.10;99.90;;;;;;5011870;28;20681;-77
2021/11/14 10:25:48;;;;;;;1.20;0.70;;;14.10;99.90;;;;;;5011528;28;20616;-76
2021/11/14 10:28:14;;;;;;;1.20;0.60;;;14.00;99.90;;;;;;5011365;28;20594;-76
2021/11/14 10:30:45;;;;;;;1.00;0.60;;;13.90;99.90;;;;;;5011969;28;20666;-76
2021/11/14 10:33:14;;;;;;;1.40;0.70;;;13.80;99.90;;;;;;5010619;28;20572;-75
2021/11/14 10:35:46;;;;;;;1.20;0.70;;;13.80;99.90;;;;;;5011385;28;20959;-76
2021/11/14 10:38:19;;;;;;;1.33;0.70;;;13.80;99.90;;;;;;5012352;28;20565;-77
2021/11/14 10:40:49;;;;;;;1.53;0.80;;;13.70;99.90;;;;;;5011121;28;20577;-76
2021/11/14 10:43:18;;;;;;;1.20;0.70;;;13.80;99.90;;;;;;5010636;28;20565;-78
2021/11/14 10:45:49;;;;;;;1.10;0.70;;;13.70;99.90;;;;;;5013805;28;21179;-77
2021/11/14 10:48:18;;;;;;;1.47;0.83;;;13.80;99.90;;;;;;5014133;28;20588;-80
2021/11/14 10:50:48;;;;;;;1.37;0.80;;;13.70;99.90;;;;;;5032806;28;20584;-80
2021/11/14 10:53:20;;;;;;;1.50;0.80;;;13.70;99.90;;;;;;5013827;28;20949;-79
2021/11/14 10:55:52;;;;;;;1.30;0.80;;;13.60;99.90;;;;;;5031986;28;20706;-80
2021/11/14 10:58:19;;;;;;;1.20;0.70;;;13.60;99.90;;;;;;4998679;28;20584;-83
2021/11/14 11:00:47;;;;;;;1.17;0.70;;;13.60;99.90;;;;;;5015608;28;20633;-81
2021/11/14 11:03:13;;;;;;;1.00;0.60;;;13.50;99.90;;;;;;5033958;28;20680;-79
2021/11/14 11:05:40;;;;;;;1.00;0.60;;;13.60;99.90;;;;;;5042004;28;20654;-80
2021/11/14 11:08:10;;;;;;;1.10;0.60;;;13.60;99.90;;;;;;5032550;28;20935;-80
2021/11/14 11:10:45;;;;;;;1.30;0.60;;;13.60;99.90;;;;;;5032457;28;20790;-80
2021/11/14 11:13:17;;;;;;;1.20;0.60;;;13.70;99.90;;;;;;5036243;28;20568;-81
2021/11/14 11:15:50;;;;;;;1.47;0.70;;;13.70;99.90;;;;;;5035163;28;20549;-79
2021/11/14 11:18:20;;;;;;;1.03;0.60;;;13.80;99.90;;;;;;5001616;28;20619;-79
2021/11/14 11:20:52;;;;;;;1.20;0.60;;;13.90;99.90;;;;;;5017445;28;20575;-80
2021/11/14 11:23:19;;;;;;;1.43;0.60;;;14.00;99.90;;;;;;5035189;28;20568;-80
2021/11/14 11:25:57;;;;;;;1.47;0.60;;;14.00;99.90;;;;;;5034661;28;20608;-79
2021/11/14 11:28:26;;;;;;;1.20;0.70;;;14.00;99.90;;;;;;5035264;28;20572;-79
2021/11/14 11:31:07;;;;;;;1.20;0.77;;;14.10;99.90;;;;;;5016836;28;20584;-80
2021/11/14 11:33:36;;;;;;;1.20;0.70;;;14.00;99.90;;;;;;5016837;28;20599;-81
2021/11/14 11:36:03;;;;;;;1.20;0.70;;;14.00;99.90;;;;;;5029098;28;20972;-81
2021/11/14 11:38:29;;;;;;;1.20;0.77;;;14.00;99.90;;;;;;5011633;28;20646;-81
2021/11/14 11:40:57;;;;;;;1.20;0.67;;;14.10;99.90;;;;;;5013033;28;20596;-80
2021/11/14 11:43:27;;;;;;;1.20;0.70;;;14.20;99.90;;;;;;5034809;28;20576;-80
2021/11/14 11:46:20;;;;;;;1.20;0.60;;;14.20;99.90;;;;;;5028052;28;20751;-81
2021/11/14 11:48:49;;;;;;;1.20;0.70;;;14.30;99.90;;;;;;5030892;28;20636;-80
2021/11/14 11:51:27;;;;;;;1.57;0.70;;;14.40;99.90;;;;;;5034507;28;20572;-80
2021/11/14 11:54:07;;;;;;;1.10;0.67;;;14.40;99.90;;;;;;5034596;28;20622;-77
2021/11/14 11:56:39;;;;;;;1.30;0.70;;;14.40;99.90;;;;;;5015939;28;21050;-77
2021/11/14 11:59:23;;;;;;;1.10;0.50;;;14.40;99.90;;;;;;5017297;28;20572;-78
2021/11/14 12:02:18;;;;;;;1.87;0.60;;;14.40;99.90;;;;;;5016417;28;21173;-78
2021/11/14 12:04:51;;;;;;;1.03;0.60;;;14.40;99.90;;;;;;4985851;28;20603;-78
2021/11/14 12:07:42;;;;;;;1.00;0.53;;;14.40;99.90;;;;;;5033224;28;20707;-78
2021/11/14 12:10:25;;;;;;;1.10;0.70;;;14.40;99.90;;;;;;5016424;28;20698;-78
2021/11/14 12:13:06;;;;;;;1.30;0.90;;;14.40;99.90;;;;;;5016477;28;20637;-78
2021/11/14 12:15:34;;;;;;;1.13;0.70;;;14.40;99.90;;;;;;5034256;28;21158;-78
2021/11/14 12:18:05;;;;;;;1.30;0.70;;;14.40;99.90;;;;;;5033302;28;20614;-79
2021/11/14 12:20:43;;;;;;;2.27;1.10;;;14.40;99.90;;;;;;5016321;28;20568;-79
2021/11/14 12:23:47;;;;;;;1.30;0.90;;;14.40;99.90;;;;;;5033727;28;20575;-78
2021/11/14 12:26:13;;;;;;;1.60;0.80;;;14.50;99.90;;;;;;5008642;28;20623;-78
2021/11/14 12:28:42;;;;;;;1.23;0.80;;;14.50;99.90;;;;;;5015689;28;20583;-78
2021/11/14 12:31:15;;;;;;;1.40;0.70;;;14.50;99.90;;;;;;5033558;28;20618;-80
2021/11/14 12:33:47;;;;;;;1.30;0.70;;;14.50;99.90;;;;;;5032775;28;20576;-78
2021/11/14 12:36:22;;;;;;;1.60;0.80;;;14.50;99.90;;;;;;5031724;28;20635;-78
2021/11/14 12:38:51;;;;;;;1.30;0.87;;;14.40;99.90;;;;;;5032052;28;20592;-79
2021/11/14 12:41:17;;;;;;;1.20;0.70;;;14.50;99.90;;;;;;5032226;28;20581;-78
2021/11/14 12:43:50;;;;;;;1.33;0.80;;;14.50;99.90;;;;;;5033045;28;20993;-78
2021/11/14 12:46:27;;;;;;;1.60;0.67;;;14.50;99.90;;;;;;5032720;28;20708;-78
2021/11/14 12:48:54;;;;;;;1.10;0.63;;;14.50;99.90;;;;;;5032943;28;20627;-78
2021/11/14 12:51:28;;;;;;;1.30;0.80;;;14.50;99.90;;;;;;5026939;28;20584;-77
2021/11/14 12:54:13;;;;;;;1.97;0.80;;;14.50;99.90;;;;;;5033382;28;20572;-77
2021/11/14 12:56:46;;;;;;;1.20;0.80;;;14.50;99.90;;;;;;5032781;28;21003;-77
2021/11/14 12:59:19;;;;;;;1.30;0.60;;;14.40;99.90;;;;;;5033142;28;20586;-78
2021/11/14 13:01:49;;;;;;;1.40;0.87;;;14.50;99.90;;;;;;5023192;28;21034;-77
2021/11/14 13:04:40;;;;;;;1.20;0.70;;;14.40;99.90;;;;;;5034261;28;20695;-78
2021/11/14 13:07:20;;;;;;;1.40;0.90;;;14.40;99.90;;;;;;5018272;28;20983;-78
2021/11/14 13:09:47;;;;;;;1.37;0.80;;;14.40;99.90;;;;;;5013255;28;20628;-77
2021/11/14 13:12:18;;;;;;;1.97;0.80;;;14.40;99.90;;;;;;5012980;28;20919;-78
2021/11/14 13:14:50;;;;;;;1.40;0.90;;;14.40;99.90;;;;;;5012851;28;20581;-78
2021/11/14 13:17:19;;;;;;;2.50;1.10;;;14.40;99.90;;;;;;4994859;28;20752;-78
2021/11/14 13:19:47;;;;;;;1.50;0.80;;;14.40;99.90;;;;;;5011888;28;20578;-78
2021/11/14 13:22:19;;;;;;;1.20;0.60;;;14.40;99.90;;;;;;5031073;28;20612;-78
2021/11/14 13:24:53;;;;;;;1.37;0.73;;;14.40;99.90;;;;;;5014625;28;20692;-78
2021/11/14 13:27:20;;;;;;;1.30;0.70;;;14.50;99.90;;;;;;5031737;28;20616;-79
2021/11/14 13:29:48;;;;;;;1.30;0.80;;;14.50;99.90;;;;;;5032313;28;20731;-78
2021/11/14 13:32:17;;;;;;;1.20;0.70;;;14.50;99.90;;;;;;5031777;28;20568;-78
2021/11/14 13:34:48;;;;;;;1.63;0.60;;;14.50;99.90;;;;;;5032291;28;20568;-77
2021/11/14 13:37:30;;;;;;;1.10;0.60;;;14.50;99.90;;;;;;4996466;28;20994;-78
2021/11/14 13:40:05;;;;;;;1.30;0.80;;;14.50;99.90;;;;;;5015125;28;20576;-78
2021/11/14 13:42:38;;;;;;;1.20;0.80;;;14.50;99.90;;;;;;4997570;28;21010;-77
2021/11/14 13:45:16;;;;;;;2.03;0.70;;;14.50;99.90;;;;;;5032219;28;20573;-78
2021/11/14 13:47:50;;;;;;;1.50;0.90;;;14.50;99.90;;;;;;5031533;28;20679;-80
2021/11/14 13:50:28;;;;;;;1.30;0.70;;;14.50;99.90;;;;;;5031913;28;20628;-77
2021/11/14 13:53:02;;;;;;;1.20;0.80;;;14.50;99.90;;;;;;5031605;28;20982;-77
2021/11/14 13:55:47;;;;;;;2.17;0.70;;;14.50;99.90;;;;;;5031540;28;20592;-77
2021/11/14 13:58:14;;;;;;;1.60;1.10;;;14.40;99.90;;;;;;5031906;28;20563;-77
2021/11/14 14:00:41;;;;;;;1.10;0.70;;;14.40;99.90;;;;;;5031640;28;20572;-77
2021/11/14 14:03:23;;;;;;;1.40;0.80;;;14.40;99.90;;;;;;5013676;28;20611;-77
2021/11/14 14:05:51;;;;;;;1.30;0.80;;;14.40;99.90;;;;;;5013438;28;20608;-77